Oak Grove, Texas
Current Conditions -  °F | °C
As of 12:35 AM on Saturday 25 Oct 2014 (Local Time) from KJDD Reporting Station
Clear Clear  
Wind Chill: 66°   Ceiling: Unl
Heat Index: 66°   Visibility: 10mi
Dew Point: 61°   Wind: 3mph
Humidity: 83%   Direction: 160°SSE
Pressure: 30.12"   Gusts: NA
Location:  32.7982°N, 95.4046°W
Report Text: KJDD 250535Z AUTO 16003KT 10SM CLR 19/16 A3012 RMK AO2
Loading
Personal Weather Stations






























Interactive Weather Map
Tropical Storm Tracking
New forecast layout! Learn more

10-Day Weather Forecast

Advertisements
Track Severe Weather on mobile